sensor_id;sensor_type;location;lat;lon;timestamp;P1;durP1;ratioP1;P2;durP2;ratioP2
78916;SDS011;68315;48.608;11.436;2023-09-08T00:01:28;7.25;;;6.15;;
78916;SDS011;68315;48.608;11.436;2023-09-08T00:03:53;6.95;;;5.60;;
78916;SDS011;68315;48.608;11.436;2023-09-08T00:06:18;6.77;;;6.03;;
78916;SDS011;68315;48.608;11.436;2023-09-08T00:08:44;7.28;;;5.30;;
78916;SDS011;68315;48.608;11.436;2023-09-08T00:11:09;6.88;;;6.07;;
78916;SDS011;68315;48.608;11.436;2023-09-08T00:13:34;6.20;;;5.60;;
78916;SDS011;68315;48.608;11.436;2023-09-08T00:16:00;6.80;;;5.97;;
78916;SDS011;68315;48.608;11.436;2023-09-08T00:18:25;7.05;;;6.35;;
78916;SDS011;68315;48.608;11.436;2023-09-08T00:20:50;7.20;;;6.05;;
78916;SDS011;68315;48.608;11.436;2023-09-08T00:23:15;7.13;;;6.40;;
78916;SDS011;68315;48.608;11.436;2023-09-08T00:25:41;6.57;;;5.88;;
78916;SDS011;68315;48.608;11.436;2023-09-08T00:28:06;6.40;;;5.70;;
78916;SDS011;68315;48.608;11.436;2023-09-08T00:30:31;5.93;;;5.28;;
78916;SDS011;68315;48.608;11.436;2023-09-08T00:32:57;6.15;;;5.57;;
78916;SDS011;68315;48.608;11.436;2023-09-08T00:35:22;7.15;;;5.90;;
78916;SDS011;68315;48.608;11.436;2023-09-08T00:37:47;7.38;;;6.15;;
78916;SDS011;68315;48.608;11.436;2023-09-08T00:40:12;6.90;;;6.22;;
78916;SDS011;68315;48.608;11.436;2023-09-08T00:42:38;8.15;;;6.30;;
78916;SDS011;68315;48.608;11.436;2023-09-08T00:45:03;8.00;;;7.00;;
78916;SDS011;68315;48.608;11.436;2023-09-08T00:47:29;6.55;;;5.93;;
78916;SDS011;68315;48.608;11.436;2023-09-08T00:49:54;5.30;;;4.80;;
78916;SDS011;68315;48.608;11.436;2023-09-08T00:52:20;6.13;;;5.10;;
78916;SDS011;68315;48.608;11.436;2023-09-08T00:54:46;4.93;;;4.53;;
78916;SDS011;68315;48.608;11.436;2023-09-08T00:57:11;6.45;;;5.82;;
78916;SDS011;68315;48.608;11.436;2023-09-08T00:59:36;6.15;;;5.55;;
78916;SDS011;68315;48.608;11.436;2023-09-08T01:02:03;6.57;;;5.47;;
78916;SDS011;68315;48.608;11.436;2023-09-08T01:04:28;7.18;;;5.72;;
78916;SDS011;68315;48.608;11.436;2023-09-08T01:06:54;7.55;;;5.32;;
78916;SDS011;68315;48.608;11.436;2023-09-08T01:09:21;5.75;;;5.05;;
78916;SDS011;68315;48.608;11.436;2023-09-08T01:11:46;6.35;;;5.45;;
78916;SDS011;68315;48.608;11.436;2023-09-08T01:14:12;7.10;;;5.80;;
78916;SDS011;68315;48.608;11.436;2023-09-08T01:16:38;7.57;;;6.15;;
78916;SDS011;68315;48.608;11.436;2023-09-08T01:19:05;6.78;;;6.07;;
78916;SDS011;68315;48.608;11.436;2023-09-08T01:26:59;6.68;;;5.95;;
78916;SDS011;68315;48.608;11.436;2023-09-08T01:29:25;7.20;;;6.40;;
78916;SDS011;68315;48.608;11.436;2023-09-08T01:31:51;6.43;;;5.80;;
78916;SDS011;68315;48.608;11.436;2023-09-08T01:34:17;5.68;;;5.18;;
78916;SDS011;68315;48.608;11.436;2023-09-08T01:36:43;7.05;;;5.38;;
78916;SDS011;68315;48.608;11.436;2023-09-08T01:39:10;6.07;;;5.20;;
78916;SDS011;68315;48.608;11.436;2023-09-08T01:41:35;7.35;;;6.55;;
78916;SDS011;68315;48.608;11.436;2023-09-08T01:44:00;6.72;;;6.03;;
78916;SDS011;68315;48.608;11.436;2023-09-08T01:46:32;6.95;;;6.22;;
78916;SDS011;68315;48.608;11.436;2023-09-08T01:48:58;7.63;;;6.13;;
78916;SDS011;68315;48.608;11.436;2023-09-08T01:51:23;6.93;;;6.22;;
78916;SDS011;68315;48.608;11.436;2023-09-08T01:53:48;5.93;;;5.32;;
78916;SDS011;68315;48.608;11.436;2023-09-08T01:56:13;6.28;;;5.38;;
78916;SDS011;68315;48.608;11.436;2023-09-08T01:58:39;6.53;;;5.90;;
78916;SDS011;68315;48.608;11.436;2023-09-08T02:01:04;8.60;;;6.70;;
78916;SDS011;68315;48.608;11.436;2023-09-08T02:03:31;7.30;;;5.72;;
78916;SDS011;68315;48.608;11.436;2023-09-08T02:05:56;7.07;;;6.22;;
78916;SDS011;68315;48.608;11.436;2023-09-08T02:08:22;7.00;;;5.20;;
78916;SDS011;68315;48.608;11.436;2023-09-08T02:10:47;6.55;;;5.82;;
78916;SDS011;68315;48.608;11.436;2023-09-08T02:13:12;6.32;;;5.60;;
78916;SDS011;68315;48.608;11.436;2023-09-08T02:15:37;5.65;;;5.05;;
78916;SDS011;68315;48.608;11.436;2023-09-08T02:18:03;7.13;;;6.18;;
78916;SDS011;68315;48.608;11.436;2023-09-08T02:20:28;9.20;;;7.32;;
78916;SDS011;68315;48.608;11.436;2023-09-08T02:22:54;6.88;;;6.13;;
78916;SDS011;68315;48.608;11.436;2023-09-08T02:25:20;6.97;;;6.25;;
78916;SDS011;68315;48.608;11.436;2023-09-08T02:27:45;6.90;;;5.85;;
78916;SDS011;68315;48.608;11.436;2023-09-08T02:30:10;7.20;;;5.95;;
78916;SDS011;68315;48.608;11.436;2023-09-08T02:32:36;6.65;;;5.93;;
78916;SDS011;68315;48.608;11.436;2023-09-08T02:35:01;6.55;;;5.90;;
78916;SDS011;68315;48.608;11.436;2023-09-08T02:37:26;7.63;;;6.07;;
78916;SDS011;68315;48.608;11.436;2023-09-08T02:39:52;6.18;;;5.47;;
78916;SDS011;68315;48.608;11.436;2023-09-08T02:42:17;5.72;;;4.60;;
78916;SDS011;68315;48.608;11.436;2023-09-08T02:44:42;5.85;;;5.03;;
78916;SDS011;68315;48.608;11.436;2023-09-08T02:47:08;6.07;;;5.03;;
78916;SDS011;68315;48.608;11.436;2023-09-08T02:49:35;5.43;;;4.93;;
78916;SDS011;68315;48.608;11.436;2023-09-08T02:52:00;6.13;;;5.22;;
78916;SDS011;68315;48.608;11.436;2023-09-08T02:54:25;5.70;;;4.78;;
78916;SDS011;68315;48.608;11.436;2023-09-08T02:56:50;5.90;;;4.88;;
78916;SDS011;68315;48.608;11.436;2023-09-08T02:59:16;5.63;;;4.70;;
78916;SDS011;68315;48.608;11.436;2023-09-08T03:01:41;5.47;;;4.97;;
78916;SDS011;68315;48.608;11.436;2023-09-08T03:04:07;6.32;;;5.72;;
78916;SDS011;68315;48.608;11.436;2023-09-08T03:06:33;5.57;;;5.05;;
78916;SDS011;68315;48.608;11.436;2023-09-08T03:08:59;7.72;;;6.97;;
78916;SDS011;68315;48.608;11.436;2023-09-08T03:11:25;6.13;;;5.53;;
78916;SDS011;68315;48.608;11.436;2023-09-08T03:13:50;7.65;;;5.97;;
78916;SDS011;68315;48.608;11.436;2023-09-08T03:16:15;7.03;;;6.32;;
78916;SDS011;68315;48.608;11.436;2023-09-08T03:18:41;6.85;;;5.97;;
78916;SDS011;68315;48.608;11.436;2023-09-08T03:21:07;6.85;;;5.63;;
78916;SDS011;68315;48.608;11.436;2023-09-08T03:23:38;7.05;;;6.25;;
78916;SDS011;68315;48.608;11.436;2023-09-08T03:26:04;9.38;;;6.97;;
78916;SDS011;68315;48.608;11.436;2023-09-08T03:28:30;8.18;;;6.22;;
78916;SDS011;68315;48.608;11.436;2023-09-08T03:30:56;6.57;;;5.57;;
78916;SDS011;68315;48.608;11.436;2023-09-08T03:33:22;7.65;;;6.70;;
78916;SDS011;68315;48.608;11.436;2023-09-08T03:35:48;7.18;;;6.35;;
78916;SDS011;68315;48.608;11.436;2023-09-08T03:38:13;8.18;;;6.10;;
78916;SDS011;68315;48.608;11.436;2023-09-08T03:40:38;6.60;;;5.90;;
78916;SDS011;68315;48.608;11.436;2023-09-08T03:43:04;6.75;;;6.10;;
78916;SDS011;68315;48.608;11.436;2023-09-08T03:45:29;7.43;;;6.63;;
78916;SDS011;68315;48.608;11.436;2023-09-08T03:47:54;6.22;;;5.60;;
78916;SDS011;68315;48.608;11.436;2023-09-08T03:50:20;7.53;;;6.10;;
78916;SDS011;68315;48.608;11.436;2023-09-08T03:52:45;7.18;;;6.15;;
78916;SDS011;68315;48.608;11.436;2023-09-08T03:55:11;8.73;;;6.72;;
78916;SDS011;68315;48.608;11.436;2023-09-08T03:57:36;6.65;;;5.95;;
78916;SDS011;68315;48.608;11.436;2023-09-08T04:00:01;6.85;;;6.15;;
78916;SDS011;68315;48.608;11.436;2023-09-08T04:02:28;6.63;;;5.93;;
78916;SDS011;68315;48.608;11.436;2023-09-08T04:04:54;7.28;;;5.43;;
78916;SDS011;68315;48.608;11.436;2023-09-08T04:07:19;7.03;;;6.22;;
78916;SDS011;68315;48.608;11.436;2023-09-08T04:09:44;8.00;;;6.07;;
78916;SDS011;68315;48.608;11.436;2023-09-08T04:12:09;5.70;;;5.15;;
78916;SDS011;68315;48.608;11.436;2023-09-08T04:14:36;6.38;;;4.90;;
78916;SDS011;68315;48.608;11.436;2023-09-08T04:17:01;9.13;;;6.57;;
78916;SDS011;68315;48.608;11.436;2023-09-08T04:19:26;6.15;;;5.55;;
78916;SDS011;68315;48.608;11.436;2023-09-08T04:21:51;6.63;;;5.15;;
78916;SDS011;68315;48.608;11.436;2023-09-08T04:24:17;8.80;;;5.97;;
78916;SDS011;68315;48.608;11.436;2023-09-08T04:26:42;6.90;;;6.20;;
78916;SDS011;68315;48.608;11.436;2023-09-08T04:29:07;7.35;;;5.63;;
78916;SDS011;68315;48.608;11.436;2023-09-08T04:31:32;6.63;;;5.93;;
78916;SDS011;68315;48.608;11.436;2023-09-08T04:33:58;6.32;;;5.13;;
78916;SDS011;68315;48.608;11.436;2023-09-08T04:36:23;6.18;;;5.57;;
78916;SDS011;68315;48.608;11.436;2023-09-08T04:38:48;6.45;;;5.35;;
78916;SDS011;68315;48.608;11.436;2023-09-08T04:41:13;6.68;;;5.93;;
78916;SDS011;68315;48.608;11.436;2023-09-08T04:43:39;7.07;;;6.30;;
78916;SDS011;68315;48.608;11.436;2023-09-08T04:46:04;9.25;;;6.88;;
78916;SDS011;68315;48.608;11.436;2023-09-08T04:48:29;6.72;;;5.63;;
78916;SDS011;68315;48.608;11.436;2023-09-08T04:53:21;6.22;;;5.50;;
78916;SDS011;68315;48.608;11.436;2023-09-08T04:55:46;6.07;;;4.88;;
78916;SDS011;68315;48.608;11.436;2023-09-08T04:58:12;5.95;;;5.35;;
78916;SDS011;68315;48.608;11.436;2023-09-08T05:00:37;5.82;;;5.22;;
78916;SDS011;68315;48.608;11.436;2023-09-08T05:03:04;6.97;;;6.28;;
78916;SDS011;68315;48.608;11.436;2023-09-08T05:05:29;7.43;;;6.38;;
78916;SDS011;68315;48.608;11.436;2023-09-08T05:07:55;8.70;;;6.15;;
78916;SDS011;68315;48.608;11.436;2023-09-08T05:10:21;9.75;;;6.88;;
78916;SDS011;68315;48.608;11.436;2023-09-08T05:12:50;9.85;;;6.07;;
78916;SDS011;68315;48.608;11.436;2023-09-08T05:15:15;6.05;;;5.35;;
78916;SDS011;68315;48.608;11.436;2023-09-08T05:17:41;7.07;;;5.70;;
78916;SDS011;68315;48.608;11.436;2023-09-08T05:20:07;5.30;;;4.80;;
78916;SDS011;68315;48.608;11.436;2023-09-08T05:22:33;6.38;;;5.50;;
78916;SDS011;68315;48.608;11.436;2023-09-08T05:24:58;6.25;;;5.65;;
78916;SDS011;68315;48.608;11.436;2023-09-08T05:27:23;8.13;;;6.47;;
78916;SDS011;68315;48.608;11.436;2023-09-08T05:29:48;5.75;;;5.15;;
78916;SDS011;68315;48.608;11.436;2023-09-08T05:32:14;5.95;;;5.30;;
78916;SDS011;68315;48.608;11.436;2023-09-08T05:34:39;6.95;;;5.88;;
78916;SDS011;68315;48.608;11.436;2023-09-08T05:37:04;7.25;;;6.00;;
78916;SDS011;68315;48.608;11.436;2023-09-08T05:39:29;7.63;;;5.95;;
78916;SDS011;68315;48.608;11.436;2023-09-08T05:41:55;7.05;;;6.35;;
78916;SDS011;68315;48.608;11.436;2023-09-08T05:44:20;5.68;;;4.93;;
78916;SDS011;68315;48.608;11.436;2023-09-08T05:46:45;8.43;;;5.80;;
78916;SDS011;68315;48.608;11.436;2023-09-08T05:49:10;7.43;;;5.78;;
78916;SDS011;68315;48.608;11.436;2023-09-08T05:51:36;6.65;;;5.78;;
78916;SDS011;68315;48.608;11.436;2023-09-08T05:54:01;7.10;;;6.32;;
78916;SDS011;68315;48.608;11.436;2023-09-08T05:56:30;6.55;;;5.70;;
78916;SDS011;68315;48.608;11.436;2023-09-08T05:58:58;6.47;;;5.80;;
78916;SDS011;68315;48.608;11.436;2023-09-08T06:01:25;8.05;;;6.68;;
78916;SDS011;68315;48.608;11.436;2023-09-08T06:03:51;7.72;;;6.65;;
78916;SDS011;68315;48.608;11.436;2023-09-08T06:06:16;6.70;;;6.05;;
78916;SDS011;68315;48.608;11.436;2023-09-08T06:08:41;7.18;;;6.30;;
78916;SDS011;68315;48.608;11.436;2023-09-08T06:11:06;7.38;;;6.68;;
78916;SDS011;68315;48.608;11.436;2023-09-08T06:13:32;6.22;;;5.63;;
78916;SDS011;68315;48.608;11.436;2023-09-08T06:15:57;5.13;;;4.40;;
78916;SDS011;68315;48.608;11.436;2023-09-08T06:18:23;6.78;;;5.70;;
78916;SDS011;68315;48.608;11.436;2023-09-08T06:20:48;7.10;;;5.90;;
78916;SDS011;68315;48.608;11.436;2023-09-08T06:23:14;7.97;;;7.18;;
78916;SDS011;68315;48.608;11.436;2023-09-08T06:25:39;7.80;;;7.00;;
78916;SDS011;68315;48.608;11.436;2023-09-08T06:28:05;7.90;;;7.10;;
78916;SDS011;68315;48.608;11.436;2023-09-08T06:30:31;7.40;;;6.47;;
78916;SDS011;68315;48.608;11.436;2023-09-08T06:32:56;6.63;;;5.95;;
78916;SDS011;68315;48.608;11.436;2023-09-08T06:35:22;6.97;;;6.18;;
78916;SDS011;68315;48.608;11.436;2023-09-08T06:37:47;6.70;;;6.03;;
78916;SDS011;68315;48.608;11.436;2023-09-08T06:40:12;7.32;;;6.60;;
78916;SDS011;68315;48.608;11.436;2023-09-08T06:42:37;9.57;;;6.95;;
78916;SDS011;68315;48.608;11.436;2023-09-08T06:45:03;6.60;;;5.97;;
78916;SDS011;68315;48.608;11.436;2023-09-08T06:47:28;6.75;;;5.68;;
78916;SDS011;68315;48.608;11.436;2023-09-08T06:49:54;7.60;;;6.80;;
78916;SDS011;68315;48.608;11.436;2023-09-08T06:52:19;9.70;;;8.70;;
78916;SDS011;68315;48.608;11.436;2023-09-08T06:54:44;11.18;;;8.15;;
78916;SDS011;68315;48.608;11.436;2023-09-08T06:57:11;10.63;;;8.93;;
78916;SDS011;68315;48.608;11.436;2023-09-08T06:59:37;9.32;;;8.30;;
78916;SDS011;68315;48.608;11.436;2023-09-08T07:02:02;9.27;;;8.15;;
78916;SDS011;68315;48.608;11.436;2023-09-08T07:04:27;9.68;;;8.25;;
78916;SDS011;68315;48.608;11.436;2023-09-08T07:06:53;8.65;;;7.63;;
78916;SDS011;68315;48.608;11.436;2023-09-08T07:09:19;7.55;;;6.55;;
78916;SDS011;68315;48.608;11.436;2023-09-08T07:11:45;6.82;;;6.13;;
78916;SDS011;68315;48.608;11.436;2023-09-08T07:14:10;6.97;;;6.30;;
78916;SDS011;68315;48.608;11.436;2023-09-08T07:16:35;7.82;;;6.45;;
78916;SDS011;68315;48.608;11.436;2023-09-08T07:19:01;8.00;;;6.30;;
78916;SDS011;68315;48.608;11.436;2023-09-08T07:21:26;7.07;;;6.22;;
78916;SDS011;68315;48.608;11.436;2023-09-08T07:23:51;8.88;;;7.15;;
78916;SDS011;68315;48.608;11.436;2023-09-08T07:26:18;8.80;;;7.32;;
78916;SDS011;68315;48.608;11.436;2023-09-08T07:28:44;12.25;;;7.93;;
78916;SDS011;68315;48.608;11.436;2023-09-08T07:31:09;9.43;;;7.72;;
78916;SDS011;68315;48.608;11.436;2023-09-08T07:33:35;9.02;;;6.97;;
78916;SDS011;68315;48.608;11.436;2023-09-08T07:36:06;8.38;;;6.90;;
78916;SDS011;68315;48.608;11.436;2023-09-08T07:38:33;7.55;;;6.57;;
78916;SDS011;68315;48.608;11.436;2023-09-08T07:40:59;7.90;;;6.93;;
78916;SDS011;68315;48.608;11.436;2023-09-08T07:43:26;7.80;;;6.50;;
78916;SDS011;68315;48.608;11.436;2023-09-08T07:45:51;7.38;;;6.47;;
78916;SDS011;68315;48.608;11.436;2023-09-08T07:48:17;6.43;;;5.68;;
78916;SDS011;68315;48.608;11.436;2023-09-08T07:50:42;8.02;;;7.22;;
78916;SDS011;68315;48.608;11.436;2023-09-08T07:53:07;7.70;;;6.28;;
78916;SDS011;68315;48.608;11.436;2023-09-08T07:55:33;8.07;;;7.18;;
78916;SDS011;68315;48.608;11.436;2023-09-08T07:57:58;7.70;;;6.90;;
78916;SDS011;68315;48.608;11.436;2023-09-08T08:00:23;8.93;;;8.00;;
78916;SDS011;68315;48.608;11.436;2023-09-08T08:02:49;7.68;;;6.85;;
78916;SDS011;68315;48.608;11.436;2023-09-08T08:05:18;6.75;;;6.15;;
78916;SDS011;68315;48.608;11.436;2023-09-08T08:07:44;8.10;;;6.82;;
78916;SDS011;68315;48.608;11.436;2023-09-08T08:10:10;7.78;;;5.63;;
78916;SDS011;68315;48.608;11.436;2023-09-08T08:12:36;7.13;;;6.43;;
78916;SDS011;68315;48.608;11.436;2023-09-08T08:15:02;9.35;;;7.78;;
78916;SDS011;68315;48.608;11.436;2023-09-08T08:17:29;8.07;;;7.03;;
78916;SDS011;68315;48.608;11.436;2023-09-08T08:19:55;8.35;;;6.90;;
78916;SDS011;68315;48.608;11.436;2023-09-08T08:22:21;9.95;;;8.68;;
78916;SDS011;68315;48.608;11.436;2023-09-08T08:24:46;7.28;;;6.53;;
78916;SDS011;68315;48.608;11.436;2023-09-08T08:27:12;5.70;;;5.10;;
78916;SDS011;68315;48.608;11.436;2023-09-08T08:29:38;6.63;;;6.03;;
78916;SDS011;68315;48.608;11.436;2023-09-08T08:32:03;7.55;;;6.82;;
78916;SDS011;68315;48.608;11.436;2023-09-08T08:34:29;6.22;;;5.63;;
78916;SDS011;68315;48.608;11.436;2023-09-08T08:36:54;8.40;;;6.57;;
78916;SDS011;68315;48.608;11.436;2023-09-08T08:39:19;6.38;;;5.75;;
78916;SDS011;68315;48.608;11.436;2023-09-08T08:41:45;6.80;;;6.10;;
78916;SDS011;68315;48.608;11.436;2023-09-08T08:44:10;8.30;;;7.40;;
78916;SDS011;68315;48.608;11.436;2023-09-08T08:46:36;8.32;;;6.20;;
78916;SDS011;68315;48.608;11.436;2023-09-08T08:49:02;7.45;;;6.65;;
78916;SDS011;68315;48.608;11.436;2023-09-08T08:51:29;8.27;;;6.43;;
78916;SDS011;68315;48.608;11.436;2023-09-08T08:53:55;9.35;;;7.50;;
78916;SDS011;68315;48.608;11.436;2023-09-08T08:56:20;9.55;;;7.35;;
78916;SDS011;68315;48.608;11.436;2023-09-08T08:58:47;7.88;;;7.07;;
78916;SDS011;68315;48.608;11.436;2023-09-08T09:01:12;7.75;;;6.95;;
78916;SDS011;68315;48.608;11.436;2023-09-08T09:03:41;6.22;;;5.65;;
78916;SDS011;68315;48.608;11.436;2023-09-08T09:06:06;7.78;;;6.38;;
78916;SDS011;68315;48.608;11.436;2023-09-08T09:08:32;6.50;;;5.80;;
78916;SDS011;68315;48.608;11.436;2023-09-08T09:10:57;7.63;;;6.80;;
78916;SDS011;68315;48.608;11.436;2023-09-08T09:13:22;7.10;;;6.40;;
78916;SDS011;68315;48.608;11.436;2023-09-08T09:15:48;7.32;;;6.32;;
78916;SDS011;68315;48.608;11.436;2023-09-08T09:18:15;8.95;;;8.02;;
78916;SDS011;68315;48.608;11.436;2023-09-08T09:20:40;6.97;;;6.22;;
78916;SDS011;68315;48.608;11.436;2023-09-08T09:23:06;8.00;;;6.43;;
78916;SDS011;68315;48.608;11.436;2023-09-08T09:25:32;8.98;;;8.02;;
78916;SDS011;68315;48.608;11.436;2023-09-08T09:27:58;7.25;;;6.55;;
78916;SDS011;68315;48.608;11.436;2023-09-08T09:30:25;7.53;;;6.75;;
78916;SDS011;68315;48.608;11.436;2023-09-08T09:33:01;7.07;;;6.38;;
78916;SDS011;68315;48.608;11.436;2023-09-08T09:35:39;8.30;;;7.50;;
78916;SDS011;68315;48.608;11.436;2023-09-08T09:38:06;6.25;;;5.72;;
78916;SDS011;68315;48.608;11.436;2023-09-08T09:40:32;5.75;;;5.20;;
78916;SDS011;68315;48.608;11.436;2023-09-08T09:42:57;8.57;;;7.78;;
78916;SDS011;68315;48.608;11.436;2023-09-08T09:45:24;7.78;;;6.97;;
78916;SDS011;68315;48.608;11.436;2023-09-08T09:47:50;7.65;;;6.85;;
78916;SDS011;68315;48.608;11.436;2023-09-08T09:50:26;7.80;;;7.00;;
78916;SDS011;68315;48.608;11.436;2023-09-08T09:53:00;9.32;;;6.57;;
78916;SDS011;68315;48.608;11.436;2023-09-08T09:55:27;8.48;;;6.68;;
78916;SDS011;68315;48.608;11.436;2023-09-08T09:57:56;7.70;;;6.90;;
78916;SDS011;68315;48.608;11.436;2023-09-08T10:00:24;8.35;;;7.03;;
78916;SDS011;68315;48.608;11.436;2023-09-08T10:02:51;7.57;;;6.88;;
78916;SDS011;68315;48.608;11.436;2023-09-08T10:05:16;8.45;;;7.53;;
78916;SDS011;68315;48.608;11.436;2023-09-08T10:07:42;6.88;;;6.25;;
78916;SDS011;68315;48.608;11.436;2023-09-08T10:10:07;7.93;;;6.80;;
78916;SDS011;68315;48.608;11.436;2023-09-08T10:12:34;8.23;;;7.53;;
78916;SDS011;68315;48.608;11.436;2023-09-08T10:15:03;8.45;;;7.65;;
78916;SDS011;68315;48.608;11.436;2023-09-08T10:17:31;8.52;;;7.57;;
78916;SDS011;68315;48.608;11.436;2023-09-08T10:19:59;8.27;;;7.53;;
78916;SDS011;68315;48.608;11.436;2023-09-08T10:22:28;8.25;;;6.95;;
78916;SDS011;68315;48.608;11.436;2023-09-08T10:24:56;7.47;;;6.78;;
78916;SDS011;68315;48.608;11.436;2023-09-08T10:27:28;8.15;;;7.35;;
78916;SDS011;68315;48.608;11.436;2023-09-08T10:29:54;7.72;;;6.95;;
78916;SDS011;68315;48.608;11.436;2023-09-08T10:32:20;7.32;;;6.63;;
78916;SDS011;68315;48.608;11.436;2023-09-08T10:34:47;7.38;;;6.68;;
78916;SDS011;68315;48.608;11.436;2023-09-08T10:37:18;7.70;;;6.93;;
78916;SDS011;68315;48.608;11.436;2023-09-08T10:39:46;8.43;;;6.30;;
78916;SDS011;68315;48.608;11.436;2023-09-08T10:47:18;9.75;;;8.68;;
78916;SDS011;68315;48.608;11.436;2023-09-08T10:49:44;9.13;;;7.70;;
78916;SDS011;68315;48.608;11.436;2023-09-08T10:52:11;8.55;;;7.60;;
78916;SDS011;68315;48.608;11.436;2023-09-08T10:54:40;7.97;;;7.18;;
78916;SDS011;68315;48.608;11.436;2023-09-08T10:57:18;8.85;;;7.93;;
78916;SDS011;68315;48.608;11.436;2023-09-08T11:00:03;7.63;;;6.90;;
78916;SDS011;68315;48.608;11.436;2023-09-08T11:02:37;8.15;;;7.45;;
78916;SDS011;68315;48.608;11.436;2023-09-08T11:05:10;8.20;;;7.28;;
78916;SDS011;68315;48.608;11.436;2023-09-08T11:07:38;8.95;;;7.45;;
78916;SDS011;68315;48.608;11.436;2023-09-08T11:10:05;7.38;;;6.68;;
78916;SDS011;68315;48.608;11.436;2023-09-08T11:12:31;8.90;;;7.10;;
78916;SDS011;68315;48.608;11.436;2023-09-08T11:14:57;8.50;;;6.90;;
78916;SDS011;68315;48.608;11.436;2023-09-08T11:17:26;7.70;;;7.00;;
78916;SDS011;68315;48.608;11.436;2023-09-08T11:19:52;7.93;;;7.13;;
78916;SDS011;68315;48.608;11.436;2023-09-08T11:22:20;7.75;;;7.05;;
78916;SDS011;68315;48.608;11.436;2023-09-08T11:24:48;7.57;;;6.88;;
78916;SDS011;68315;48.608;11.436;2023-09-08T11:27:14;9.23;;;7.13;;
78916;SDS011;68315;48.608;11.436;2023-09-08T11:29:39;7.43;;;6.80;;
78916;SDS011;68315;48.608;11.436;2023-09-08T11:32:08;7.47;;;6.75;;
78916;SDS011;68315;48.608;11.436;2023-09-08T11:34:34;7.72;;;7.10;;
78916;SDS011;68315;48.608;11.436;2023-09-08T11:37:00;7.25;;;6.55;;
78916;SDS011;68315;48.608;11.436;2023-09-08T11:39:30;7.15;;;6.55;;
78916;SDS011;68315;48.608;11.436;2023-09-08T11:41:55;7.22;;;6.53;;
78916;SDS011;68315;48.608;11.436;2023-09-08T11:44:21;8.30;;;7.40;;
78916;SDS011;68315;48.608;11.436;2023-09-08T11:46:46;7.03;;;6.35;;
78916;SDS011;68315;48.608;11.436;2023-09-08T11:49:13;8.02;;;7.22;;
78916;SDS011;68315;48.608;11.436;2023-09-08T11:51:38;7.05;;;6.45;;
78916;SDS011;68315;48.608;11.436;2023-09-08T11:54:04;7.37;;;6.67;;
78916;SDS011;68315;48.608;11.436;2023-09-08T11:56:29;8.38;;;7.22;;
78916;SDS011;68315;48.608;11.436;2023-09-08T11:58:55;7.30;;;6.60;;
78916;SDS011;68315;48.608;11.436;2023-09-08T12:01:22;7.10;;;6.50;;
78916;SDS011;68315;48.608;11.436;2023-09-08T12:03:54;8.82;;;7.93;;
78916;SDS011;68315;48.608;11.436;2023-09-08T12:06:20;7.97;;;7.28;;
78916;SDS011;68315;48.608;11.436;2023-09-08T12:08:49;8.20;;;7.50;;
78916;SDS011;68315;48.608;11.436;2023-09-08T12:11:14;8.15;;;7.35;;
78916;SDS011;68315;48.608;11.436;2023-09-08T12:13:39;7.50;;;6.80;;
78916;SDS011;68315;48.608;11.436;2023-09-08T12:16:20;7.20;;;6.53;;
78916;SDS011;68315;48.608;11.436;2023-09-08T12:18:48;7.80;;;7.00;;
78916;SDS011;68315;48.608;11.436;2023-09-08T12:21:14;6.85;;;6.25;;
78916;SDS011;68315;48.608;11.436;2023-09-08T12:23:47;8.65;;;7.85;;
78916;SDS011;68315;48.608;11.436;2023-09-08T12:26:14;8.65;;;7.88;;
78916;SDS011;68315;48.608;11.436;2023-09-08T12:28:39;8.90;;;8.00;;
78916;SDS011;68315;48.608;11.436;2023-09-08T12:31:05;7.25;;;6.65;;
78916;SDS011;68315;48.608;11.436;2023-09-08T12:33:30;6.90;;;6.30;;
78916;SDS011;68315;48.608;11.436;2023-09-08T12:35:55;7.73;;;6.53;;
78916;SDS011;68315;48.608;11.436;2023-09-08T12:38:20;7.90;;;6.87;;
78916;SDS011;68315;48.608;11.436;2023-09-08T12:40:46;8.57;;;7.32;;
78916;SDS011;68315;48.608;11.436;2023-09-08T12:43:11;7.50;;;6.90;;
78916;SDS011;68315;48.608;11.436;2023-09-08T12:45:36;7.87;;;7.07;;
78916;SDS011;68315;48.608;11.436;2023-09-08T12:48:02;7.37;;;6.67;;
78916;SDS011;68315;48.608;11.436;2023-09-08T12:50:28;7.65;;;6.90;;
78916;SDS011;68315;48.608;11.436;2023-09-08T12:52:54;7.63;;;7.03;;
78916;SDS011;68315;48.608;11.436;2023-09-08T12:55:19;8.35;;;6.82;;
78916;SDS011;68315;48.608;11.436;2023-09-08T12:57:45;7.65;;;6.95;;
78916;SDS011;68315;48.608;11.436;2023-09-08T13:00:12;8.10;;;7.40;;
78916;SDS011;68315;48.608;11.436;2023-09-08T13:02:37;7.75;;;6.95;;
78916;SDS011;68315;48.608;11.436;2023-09-08T13:05:03;7.63;;;7.00;;
78916;SDS011;68315;48.608;11.436;2023-09-08T13:07:28;7.43;;;6.80;;
78916;SDS011;68315;48.608;11.436;2023-09-08T13:09:54;7.07;;;6.45;;
78916;SDS011;68315;48.608;11.436;2023-09-08T13:12:19;7.68;;;6.97;;
78916;SDS011;68315;48.608;11.436;2023-09-08T13:14:44;7.93;;;7.13;;
78916;SDS011;68315;48.608;11.436;2023-09-08T13:17:13;7.40;;;6.70;;
78916;SDS011;68315;48.608;11.436;2023-09-08T13:19:42;6.97;;;6.40;;
78916;SDS011;68315;48.608;11.436;2023-09-08T13:22:07;7.40;;;6.43;;
78916;SDS011;68315;48.608;11.436;2023-09-08T13:24:33;8.57;;;7.78;;
78916;SDS011;68315;48.608;11.436;2023-09-08T13:26:59;8.60;;;7.65;;
78916;SDS011;68315;48.608;11.436;2023-09-08T13:29:25;7.88;;;7.28;;
78916;SDS011;68315;48.608;11.436;2023-09-08T13:31:52;6.78;;;6.15;;
78916;SDS011;68315;48.608;11.436;2023-09-08T13:34:17;8.07;;;7.32;;
78916;SDS011;68315;48.608;11.436;2023-09-08T13:36:42;7.13;;;6.30;;
78916;SDS011;68315;48.608;11.436;2023-09-08T13:39:08;7.23;;;6.63;;
78916;SDS011;68315;48.608;11.436;2023-09-08T13:44:21;7.50;;;6.78;;
78916;SDS011;68315;48.608;11.436;2023-09-08T13:46:48;7.35;;;6.68;;
78916;SDS011;68315;48.608;11.436;2023-09-08T13:49:14;7.30;;;6.43;;
78916;SDS011;68315;48.608;11.436;2023-09-08T13:51:40;7.40;;;6.70;;
78916;SDS011;68315;48.608;11.436;2023-09-08T13:54:06;7.88;;;7.03;;
78916;SDS011;68315;48.608;11.436;2023-09-08T13:56:31;7.38;;;6.72;;
78916;SDS011;68315;48.608;11.436;2023-09-08T13:58:57;7.70;;;6.85;;
78916;SDS011;68315;48.608;11.436;2023-09-08T14:01:22;7.10;;;6.40;;
78916;SDS011;68315;48.608;11.436;2023-09-08T14:03:47;9.18;;;7.53;;
78916;SDS011;68315;48.608;11.436;2023-09-08T14:06:16;7.10;;;6.40;;
78916;SDS011;68315;48.608;11.436;2023-09-08T14:08:42;7.28;;;6.68;;
78916;SDS011;68315;48.608;11.436;2023-09-08T14:11:07;7.30;;;6.60;;
78916;SDS011;68315;48.608;11.436;2023-09-08T14:13:33;7.22;;;6.63;;
78916;SDS011;68315;48.608;11.436;2023-09-08T14:15:58;7.80;;;6.60;;
78916;SDS011;68315;48.608;11.436;2023-09-08T14:18:23;7.57;;;6.87;;
78916;SDS011;68315;48.608;11.436;2023-09-08T14:20:48;7.43;;;6.73;;
78916;SDS011;68315;48.608;11.436;2023-09-08T14:23:14;7.27;;;6.57;;
78916;SDS011;68315;48.608;11.436;2023-09-08T14:25:39;8.37;;;6.83;;
78916;SDS011;68315;48.608;11.436;2023-09-08T14:28:04;6.97;;;6.27;;
78916;SDS011;68315;48.608;11.436;2023-09-08T14:30:30;7.22;;;6.53;;
78916;SDS011;68315;48.608;11.436;2023-09-08T14:32:55;7.65;;;6.95;;
78916;SDS011;68315;48.608;11.436;2023-09-08T14:35:20;7.07;;;6.47;;
78916;SDS011;68315;48.608;11.436;2023-09-08T14:37:46;7.80;;;7.00;;
78916;SDS011;68315;48.608;11.436;2023-09-08T14:40:13;7.65;;;6.85;;
78916;SDS011;68315;48.608;11.436;2023-09-08T14:42:38;7.13;;;6.53;;